createdAt,value
2023-02-17T00:02:26.292Z,100759.00
2023-02-17T00:05:28.874Z,100773.28
2023-02-17T00:08:31.179Z,100766.19
2023-02-17T00:11:34.316Z,100758.25
2023-02-17T00:14:37.026Z,100763.75
2023-02-17T00:17:39.715Z,100766.97
2023-02-17T00:20:42.187Z,100753.47
2023-02-17T00:23:45.757Z,100746.41
2023-02-17T00:26:48.575Z,100750.56
2023-02-17T00:29:51.216Z,100756.84
2023-02-17T00:32:55.682Z,100748.72
2023-02-17T00:36:00.139Z,100748.91
2023-02-17T00:39:02.772Z,100739.75
2023-02-17T00:42:05.072Z,100751.53
2023-02-17T00:45:07.892Z,100754.78
2023-02-17T00:48:11.009Z,100740.09
2023-02-17T00:51:14.899Z,100734.81
2023-02-17T00:54:18.044Z,100744.81
2023-02-17T00:57:20.883Z,100732.63
2023-02-17T01:00:24.469Z,100742.59
2023-02-17T01:03:29.369Z,100734.81
2023-02-17T01:06:34.580Z,100739.38
2023-02-17T01:09:37.270Z,100714.13
2023-02-17T01:12:40.062Z,100740.81
2023-02-17T01:15:46.012Z,100726.53
2023-02-17T01:18:49.496Z,100722.00
2023-02-17T01:21:53.854Z,100720.72
2023-02-17T01:24:56.358Z,100715.22
2023-02-17T01:27:59.329Z,100716.03
2023-02-17T01:31:07.814Z,100710.75
2023-02-17T01:34:11.452Z,100669.97
2023-02-17T01:37:13.852Z,100697.75
2023-02-17T01:40:16.928Z,100691.00
2023-02-17T01:43:19.325Z,100688.59
2023-02-17T01:46:21.774Z,100691.38
2023-02-17T01:49:34.467Z,100688.09
2023-02-17T01:52:37.164Z,100676.72
2023-02-17T01:55:40.458Z,100684.25
2023-02-17T01:58:46.505Z,100682.97
2023-02-17T02:01:52.522Z,100680.28
2023-02-17T02:04:55.664Z,100662.00
2023-02-17T02:07:58.183Z,100659.66
2023-02-17T02:11:01.251Z,100650.94
2023-02-17T02:14:06.978Z,100647.44
2023-02-17T02:17:30.030Z,100646.00
2023-02-17T02:20:58.097Z,100638.94
2023-02-17T02:24:06.018Z,100638.56
2023-02-17T02:27:25.525Z,100642.50
2023-02-17T02:30:50.822Z,100637.28
2023-02-17T02:33:58.024Z,100629.06
2023-02-17T02:37:09.187Z,100630.09
2023-02-17T02:40:12.107Z,100629.13
2023-02-17T02:43:15.814Z,100635.50
2023-02-17T02:46:18.196Z,100633.31
2023-02-17T02:49:20.596Z,100634.50
2023-02-17T02:52:28.300Z,100616.50
2023-02-17T02:55:45.594Z,100616.94
2023-02-17T02:58:59.642Z,100609.41
2023-02-17T03:02:04.992Z,100618.53
2023-02-17T03:05:25.890Z,100619.00
2023-02-17T03:08:46.523Z,100606.25
2023-02-17T03:11:49.671Z,100610.50
2023-02-17T03:14:57.413Z,100601.91
2023-02-17T03:18:01.267Z,100599.47
2023-02-17T03:21:09.768Z,100607.06
2023-02-17T03:24:12.228Z,100607.56
2023-02-17T03:27:14.647Z,100593.97
2023-02-17T03:30:17.310Z,100591.06
2023-02-17T03:33:19.735Z,100586.47
2023-02-17T03:36:22.096Z,100590.66
2023-02-17T03:39:24.598Z,100580.72
2023-02-17T03:42:27.766Z,100582.81
2023-02-17T03:45:30.189Z,100580.78
2023-02-17T03:48:32.683Z,100568.50
2023-02-17T03:51:35.100Z,100567.78
2023-02-17T03:54:38.512Z,100554.22
2023-02-17T03:57:40.885Z,100553.78
2023-02-17T04:00:43.442Z,100551.47
2023-02-17T04:03:45.740Z,100544.41
2023-02-17T04:06:48.209Z,100547.00
2023-02-17T04:09:50.471Z,100551.38
2023-02-17T04:12:52.774Z,100542.69
2023-02-17T04:15:55.597Z,100538.44
2023-02-17T04:18:58.010Z,100532.78
2023-02-17T04:22:01.048Z,100516.72
2023-02-17T04:25:03.678Z,100521.88
2023-02-17T04:28:07.290Z,100524.94
2023-02-17T04:31:10.106Z,100527.91
2023-02-17T04:34:12.607Z,100519.53
2023-02-17T04:37:15.066Z,100521.66
2023-02-17T04:40:18.270Z,100515.91
2023-02-17T04:43:20.846Z,100503.09
2023-02-17T04:46:23.330Z,100500.97
2023-02-17T04:49:25.874Z,100513.66
2023-02-17T04:52:28.675Z,100495.69
2023-02-17T04:55:31.770Z,100510.03
2023-02-17T04:58:34.157Z,100507.66
2023-02-17T05:01:36.490Z,100510.84
2023-02-17T05:04:38.865Z,100508.84
2023-02-17T05:07:43.983Z,100436.50
2023-02-17T05:10:46.450Z,100503.47
2023-02-17T05:13:49.065Z,100499.69
2023-02-17T05:16:52.801Z,100480.66
2023-02-17T05:19:55.328Z,100500.63
2023-02-17T05:22:57.705Z,100487.25
2023-02-17T05:26:00.020Z,100484.28
2023-02-17T05:29:02.548Z,100487.91
2023-02-17T05:32:04.937Z,100484.91
2023-02-17T05:35:07.840Z,100501.22
2023-02-17T05:38:10.268Z,100490.28
2023-02-17T05:41:12.620Z,100494.75
2023-02-17T05:44:15.060Z,100485.22
2023-02-17T05:47:17.868Z,100475.16
2023-02-17T05:50:20.251Z,100470.66
2023-02-17T05:53:24.684Z,100463.75
2023-02-17T05:56:27.040Z,100476.66
2023-02-17T05:59:29.597Z,100474.66
2023-02-17T06:02:32.029Z,100466.09
2023-02-17T06:05:34.631Z,100468.31
2023-02-17T06:08:37.326Z,100462.31
2023-02-17T06:11:40.013Z,100473.34
2023-02-17T06:14:42.901Z,100465.03
2023-02-17T06:17:45.707Z,100455.41
2023-02-17T06:20:49.185Z,100464.69
2023-02-17T06:23:51.977Z,100465.28
2023-02-17T06:26:54.580Z,100466.09
2023-02-17T06:29:57.247Z,100461.38
2023-02-17T06:33:00.173Z,100463.72
2023-02-17T06:36:03.024Z,100449.88
2023-02-17T06:39:05.654Z,100461.13
2023-02-17T06:42:08.266Z,100462.91
2023-02-17T06:45:11.539Z,100459.03
2023-02-17T06:48:14.040Z,100449.53
2023-02-17T06:51:16.644Z,100459.16
2023-02-17T06:54:18.960Z,100451.97
2023-02-17T06:57:22.210Z,100457.66
2023-02-17T07:00:25.255Z,100447.63
2023-02-17T07:03:27.719Z,100450.06
2023-02-17T07:06:30.475Z,100455.69
2023-02-17T07:09:34.173Z,100438.81
2023-02-17T07:12:36.991Z,100451.97
2023-02-17T07:15:39.391Z,100432.16
2023-02-17T07:18:43.582Z,100461.44
2023-02-17T07:21:46.819Z,100463.47
2023-02-17T07:24:49.212Z,100456.06
2023-02-17T07:27:52.386Z,100439.84
2023-02-17T07:30:55.340Z,100450.88
2023-02-17T07:33:58.109Z,100441.28
2023-02-17T07:37:00.456Z,100414.72
2023-02-17T07:40:03.751Z,100437.53
2023-02-17T07:43:06.223Z,100433.84
2023-02-17T07:46:10.388Z,100442.09
2023-02-17T07:49:15.046Z,100436.56
2023-02-17T07:52:18.904Z,100434.59
2023-02-17T07:55:22.272Z,100437.56
2023-02-17T07:58:26.483Z,100442.16
2023-02-17T08:01:28.947Z,100441.34
2023-02-17T08:04:32.984Z,100411.13
2023-02-17T08:07:35.399Z,100418.63
2023-02-17T08:10:57.842Z,100418.69
2023-02-17T08:14:00.962Z,100399.38
2023-02-17T08:17:03.557Z,100397.00
2023-02-17T08:20:09.252Z,100398.69
2023-02-17T08:23:12.302Z,100382.00
2023-02-17T08:26:15.575Z,100381.50
2023-02-17T08:29:20.979Z,100379.00
2023-02-17T08:32:23.616Z,100368.78
2023-02-17T08:35:26.623Z,100365.13
2023-02-17T08:38:30.046Z,100357.94
2023-02-17T08:41:35.327Z,100354.81
2023-02-17T08:44:38.106Z,100348.38
2023-02-17T08:47:40.814Z,100347.59
2023-02-17T08:50:43.990Z,100340.25
2023-02-17T08:53:48.925Z,100329.34
2023-02-17T08:56:51.389Z,100346.38
2023-02-17T08:59:55.252Z,100321.84
2023-02-17T09:02:58.138Z,100334.00
2023-02-17T09:06:00.677Z,100328.03
2023-02-17T09:09:05.184Z,100297.72
2023-02-17T09:12:08.001Z,100329.16
2023-02-17T09:15:10.583Z,100326.41
2023-02-17T09:18:13.688Z,100329.88
2023-02-17T09:21:17.141Z,100326.09
2023-02-17T09:24:20.739Z,100315.88
2023-02-17T09:27:23.281Z,100309.84
2023-02-17T09:30:25.904Z,100311.81
2023-02-17T09:33:28.384Z,100294.59
2023-02-17T09:36:39.837Z,100307.59
2023-02-17T09:39:42.178Z,100298.41
2023-02-17T09:42:45.024Z,100292.41
2023-02-17T09:46:22.536Z,100284.53
2023-02-17T09:49:40.209Z,100275.03
2023-02-17T09:53:04.181Z,100261.84
2023-02-17T09:56:09.676Z,100279.09
2023-02-17T09:59:17.325Z,100260.03
2023-02-17T10:02:37.334Z,100274.38
2023-02-17T10:05:52.144Z,100267.94
2023-02-17T10:09:22.598Z,100255.13
2023-02-17T10:12:28.688Z,100255.53
2023-02-17T10:15:42.613Z,100236.56
2023-02-17T10:19:11.582Z,100238.69
2023-02-17T10:22:18.447Z,100228.38
2023-02-17T10:25:27.610Z,100209.22
2023-02-17T10:28:49.296Z,100216.06
2023-02-17T10:32:08.327Z,100212.66
2023-02-17T10:35:23.344Z,100209.84
2023-02-17T10:38:28.859Z,100211.47
2023-02-17T10:41:35.920Z,100203.28
2023-02-17T10:44:39.633Z,100184.31
2023-02-17T10:47:42.418Z,100189.25
2023-02-17T10:50:46.697Z,100175.06
2023-02-17T10:53:50.132Z,100159.13
2023-02-17T10:56:55.238Z,100153.66
2023-02-17T10:59:58.639Z,100142.50
2023-02-17T11:03:01.422Z,100130.03
2023-02-17T11:06:06.869Z,100127.91
2023-02-17T11:09:34.797Z,100121.72
2023-02-17T11:12:41.821Z,100110.94
2023-02-17T11:15:46.017Z,100084.09
2023-02-17T11:18:48.320Z,100080.81
2023-02-17T11:21:53.296Z,100069.81
2023-02-17T11:25:01.718Z,100074.00
2023-02-17T11:28:27.360Z,100059.38
2023-02-17T11:31:32.264Z,100055.06
2023-02-17T11:34:40.316Z,100056.53
2023-02-17T11:37:43.476Z,100050.44
2023-02-17T11:40:58.187Z,100047.81
2023-02-17T11:44:00.824Z,100040.09
2023-02-17T11:47:24.025Z,100011.81
2023-02-17T11:50:41.308Z,100001.59
2023-02-17T11:53:52.433Z,100000.00
2023-02-17T11:57:08.074Z,100001.09
2023-02-17T12:00:22.851Z,99986.38
2023-02-17T12:03:57.621Z,99980.41
2023-02-17T12:07:48.168Z,99980.91
2023-02-17T12:11:00.083Z,99974.09
2023-02-17T12:14:18.999Z,99961.06
2023-02-17T12:17:27.384Z,99947.66
2023-02-17T12:20:54.588Z,99942.19
2023-02-17T12:24:06.639Z,99933.44
2023-02-17T12:27:27.505Z,99922.22
2023-02-17T12:30:48.864Z,99903.94
2023-02-17T12:33:59.431Z,99889.28
2023-02-17T12:37:02.270Z,99894.78
2023-02-17T12:40:08.718Z,99888.44
2023-02-17T12:43:32.208Z,99886.31
2023-02-17T12:46:40.987Z,99870.34
2023-02-17T12:50:06.619Z,99880.16
2023-02-17T12:53:16.713Z,99875.69
2023-02-17T12:56:34.675Z,99867.66
2023-02-17T12:59:41.713Z,99861.31
2023-02-17T13:02:44.208Z,99849.25
2023-02-17T13:05:49.381Z,99843.22
2023-02-17T13:09:01.206Z,99837.94
2023-02-17T13:12:12.969Z,99839.53
2023-02-17T13:15:58.885Z,99831.41
2023-02-17T13:19:08.918Z,99820.56
2023-02-17T13:22:24.040Z,99812.78
2023-02-17T13:25:30.157Z,99804.91
2023-02-17T13:28:38.471Z,99772.84
2023-02-17T13:31:58.824Z,99799.38
2023-02-17T13:35:24.620Z,99779.16
2023-02-17T13:38:32.035Z,99770.53
2023-02-17T13:41:48.184Z,99746.47
2023-02-17T13:44:51.974Z,99741.91
2023-02-17T13:47:57.872Z,99723.16
2023-02-17T13:51:10.025Z,99725.34
2023-02-17T13:54:13.116Z,99719.91
2023-02-17T13:57:28.747Z,99694.50
2023-02-17T14:00:32.308Z,99695.53
2023-02-17T14:03:42.589Z,99680.38
2023-02-17T14:06:45.105Z,99672.00
2023-02-17T14:09:54.818Z,99620.81
2023-02-17T14:12:57.682Z,99642.22
2023-02-17T14:16:01.397Z,99637.63
2023-02-17T14:19:11.186Z,99633.25
2023-02-17T14:22:31.320Z,99614.84
2023-02-17T14:25:37.033Z,99610.00
2023-02-17T14:28:39.354Z,99596.16
2023-02-17T14:31:50.532Z,99602.13
2023-02-17T14:34:53.103Z,99584.50
2023-02-17T14:37:56.234Z,99586.66
2023-02-17T14:41:01.256Z,99576.66
2023-02-17T14:44:03.839Z,99565.53
2023-02-17T14:47:06.686Z,99556.34
2023-02-17T14:50:09.760Z,99545.78
2023-02-17T14:53:27.055Z,99542.75
2023-02-17T14:56:42.510Z,99549.03
2023-02-17T14:59:45.414Z,99537.09
2023-02-17T15:02:48.283Z,99536.31
2023-02-17T15:05:52.581Z,99517.84
2023-02-17T15:08:55.416Z,99529.75
2023-02-17T15:11:58.821Z,99512.69
2023-02-17T15:15:01.407Z,99509.97
2023-02-17T15:18:04.093Z,99516.19
2023-02-17T15:21:18.301Z,99506.66
2023-02-17T15:24:29.913Z,99497.50
2023-02-17T15:27:33.532Z,99498.88
2023-02-17T15:30:37.241Z,99480.66
2023-02-17T15:33:39.978Z,99471.75
2023-02-17T15:36:42.489Z,99464.16
2023-02-17T15:39:44.830Z,99466.78
2023-02-17T15:42:51.127Z,99440.00
2023-02-17T15:45:53.635Z,99449.00
2023-02-17T15:48:55.956Z,99434.56
2023-02-17T15:51:58.410Z,99427.53
2023-02-17T15:55:00.847Z,99424.03
2023-02-17T15:58:05.401Z,99421.50
2023-02-17T16:01:13.957Z,99397.63
2023-02-17T16:04:16.412Z,99401.84
2023-02-17T16:07:19.817Z,99368.41
2023-02-17T16:10:27.341Z,99390.06
2023-02-17T16:13:29.792Z,99385.38
2023-02-17T16:16:33.809Z,99388.03
2023-02-17T16:19:36.216Z,99383.97
2023-02-17T16:22:38.916Z,99375.22
2023-02-17T16:25:43.234Z,99366.78
2023-02-17T16:28:45.804Z,99359.34
2023-02-17T16:31:49.041Z,99362.88
2023-02-17T16:34:52.043Z,99354.50
2023-02-17T16:38:01.154Z,99335.50
2023-02-17T16:41:03.636Z,99326.72
2023-02-17T16:44:07.627Z,99334.84
2023-02-17T16:47:19.953Z,99326.28
2023-02-17T16:50:32.000Z,99329.47
2023-02-17T16:53:34.504Z,99313.81
2023-02-17T16:56:40.904Z,99316.53
2023-02-17T16:59:43.393Z,99304.03
2023-02-17T17:02:46.103Z,99297.88
2023-02-17T17:05:49.038Z,99300.22
2023-02-17T17:08:52.062Z,99300.41
2023-02-17T17:11:58.749Z,99292.25
2023-02-17T17:15:01.166Z,99291.44
2023-02-17T17:18:06.531Z,99270.31
2023-02-17T17:21:12.476Z,99275.09
2023-02-17T17:24:15.032Z,99258.69
2023-02-17T17:27:17.765Z,99268.59
2023-02-17T17:30:22.865Z,99259.38
2023-02-17T17:33:25.214Z,99261.94
2023-02-17T17:36:41.869Z,99261.75
2023-02-17T17:39:44.254Z,99248.13
2023-02-17T17:42:46.869Z,99241.03
2023-02-17T17:45:52.868Z,99248.66
2023-02-17T17:48:56.211Z,99244.97
2023-02-17T17:51:58.638Z,99239.34
2023-02-17T17:55:01.191Z,99215.41
2023-02-17T17:58:03.695Z,99225.50
2023-02-17T18:01:06.749Z,99226.31
2023-02-17T18:04:09.690Z,99227.81
2023-02-17T18:07:12.328Z,99212.59
2023-02-17T18:10:15.079Z,99199.66
2023-02-17T18:13:17.593Z,99209.22
2023-02-17T18:16:21.968Z,99198.44
2023-02-17T18:19:24.435Z,99193.88
2023-02-17T18:22:26.825Z,99199.78
2023-02-17T18:25:29.238Z,99192.72
2023-02-17T18:28:31.693Z,99174.31
2023-02-17T18:31:34.214Z,99184.31
2023-02-17T18:34:36.663Z,99188.66
2023-02-17T18:37:41.182Z,99176.03
2023-02-17T18:40:43.731Z,99167.28
2023-02-17T18:43:46.222Z,99149.66
2023-02-17T18:46:48.554Z,99155.53
2023-02-17T18:49:52.406Z,99143.69
2023-02-17T18:52:54.884Z,99153.09
2023-02-17T18:55:57.190Z,99158.09
2023-02-17T18:59:00.284Z,99148.72
2023-02-17T19:02:10.439Z,99151.25
2023-02-17T19:05:14.166Z,99159.19
2023-02-17T19:08:16.608Z,99174.03
2023-02-17T19:11:20.718Z,99188.00
2023-02-17T19:14:23.134Z,99205.06
2023-02-17T19:17:25.774Z,99183.25
2023-02-17T19:20:29.386Z,99176.22
2023-02-17T19:23:32.003Z,99147.56
2023-02-17T19:26:34.570Z,99151.91
2023-02-17T19:29:37.396Z,99159.97
2023-02-17T19:32:40.243Z,99156.25
2023-02-17T19:35:44.190Z,99158.81
2023-02-17T19:38:47.729Z,99185.03
2023-02-17T19:41:50.108Z,99182.41
2023-02-17T19:44:52.442Z,99172.66
2023-02-17T19:47:55.033Z,99183.59
2023-02-17T19:51:02.830Z,99193.53
2023-02-17T19:54:05.570Z,99199.22
2023-02-17T19:57:08.105Z,99208.97
2023-02-17T20:00:11.028Z,99198.41
2023-02-17T20:03:13.283Z,99200.03
2023-02-17T20:06:19.259Z,99212.13
2023-02-17T20:09:23.040Z,99203.81
2023-02-17T20:12:25.863Z,99196.22
2023-02-17T20:15:28.323Z,99191.06
2023-02-17T20:18:32.359Z,99212.13
2023-02-17T20:21:38.573Z,99215.69
2023-02-17T20:24:42.058Z,99181.34
2023-02-17T20:27:44.702Z,99204.56
2023-02-17T20:30:47.304Z,99215.94
2023-02-17T20:33:49.879Z,99209.50
2023-02-17T20:36:52.233Z,99213.81
2023-02-17T20:39:54.710Z,99210.56
2023-02-17T20:42:57.255Z,99216.22
2023-02-17T20:46:00.447Z,99213.72
2023-02-17T20:49:02.851Z,99210.00
2023-02-17T20:52:05.872Z,99219.75
2023-02-17T20:55:08.476Z,99211.88
2023-02-17T20:58:12.144Z,99218.66
2023-02-17T21:01:15.127Z,99233.56
2023-02-17T21:04:17.533Z,99229.63
2023-02-17T21:07:19.911Z,99234.22
2023-02-17T21:10:25.602Z,99223.31
2023-02-17T21:13:29.861Z,99236.19
2023-02-17T21:16:35.875Z,99228.31
2023-02-17T21:19:38.676Z,99206.66
2023-02-17T21:22:41.701Z,99219.63
2023-02-17T21:25:46.350Z,99211.31
2023-02-17T21:28:49.003Z,99224.91
2023-02-17T21:31:52.855Z,99217.44
2023-02-17T21:34:56.018Z,99234.63
2023-02-17T21:37:58.405Z,99229.00
2023-02-17T21:41:12.022Z,99227.88
2023-02-17T21:44:33.091Z,99208.13
2023-02-17T21:47:35.588Z,99236.56
2023-02-17T21:50:38.002Z,99193.69
2023-02-17T21:53:40.708Z,99212.63
2023-02-17T21:56:43.163Z,99176.34
2023-02-17T21:59:45.607Z,99181.28
2023-02-17T22:02:48.146Z,99160.66
2023-02-17T22:05:50.938Z,99196.38
2023-02-17T22:08:53.419Z,99199.13
2023-02-17T22:11:55.788Z,99190.09
2023-02-17T22:14:58.715Z,99186.78
2023-02-17T22:18:01.463Z,99192.00
2023-02-17T22:21:07.094Z,99201.66
2023-02-17T22:24:09.801Z,99211.56
2023-02-17T22:27:12.154Z,99204.84
2023-02-17T22:30:14.654Z,99191.53
2023-02-17T22:33:17.416Z,99189.47
2023-02-17T22:36:22.916Z,99201.09
2023-02-17T22:39:25.594Z,99180.81
2023-02-17T22:42:28.946Z,99177.78
2023-02-17T22:45:32.026Z,99187.72
2023-02-17T22:48:36.544Z,99211.25
2023-02-17T22:51:40.593Z,99209.16
2023-02-17T22:54:44.202Z,99226.19
2023-02-17T22:57:47.873Z,99214.81
2023-02-17T23:00:50.418Z,99203.72
2023-02-17T23:03:54.723Z,99216.13
2023-02-17T23:06:57.404Z,99217.81
2023-02-17T23:09:59.772Z,99203.06
2023-02-17T23:13:02.205Z,99236.28
2023-02-17T23:16:05.410Z,99219.44
2023-02-17T23:19:09.711Z,99219.63
2023-02-17T23:22:16.063Z,99242.97
2023-02-17T23:25:18.628Z,99236.78
2023-02-17T23:28:22.981Z,99236.59
2023-02-17T23:31:25.532Z,99248.69
2023-02-17T23:34:28.696Z,99220.81
2023-02-17T23:37:31.125Z,99237.34
2023-02-17T23:40:36.964Z,99243.00
2023-02-17T23:43:39.375Z,99249.13
2023-02-17T23:46:42.971Z,99243.31
2023-02-17T23:49:45.307Z,99230.66
2023-02-17T23:52:47.720Z,99239.28
2023-02-17T23:55:50.080Z,99228.41
2023-02-17T23:58:52.542Z,99242.69
